Time;durP1;ratioP1;P1;durP2;ratioP2;P2;SDS_P1;SDS_P2;PMS_P1;PMS_P2;Temp;Humidity;BMP_temperature;BMP_pressure;BME280_temperature;BME280_humidity;BME280_pressure;Samples;Min_cycle;Max_cycle;Signal;HPM_P1;HPM_P2
2022/06/25 00:02:09;;;;;;;1.58;1.35;;;;;;;;;;4920398;29;20272;-62
2022/06/25 00:07:21;;;;;;;4.53;1.25;;;;;;;;;;4916330;29;20306;-62
2022/06/25 00:09:48;;;;;;;4.68;1.45;;;;;;;;;;4927431;29;20216;-62
2022/06/25 00:12:35;;;;;;;3.25;1.38;;;;;;;;;;4923078;29;20212;-62
2022/06/25 00:15:03;;;;;;;2.60;1.60;;;;;;;;;;4929126;29;20216;-62
2022/06/25 00:17:30;;;;;;;1.85;1.30;;;;;;;;;;4916325;29;20204;-62
2022/06/25 00:19:57;;;;;;;1.60;1.50;;;;;;;;;;4911612;29;20212;-62
2022/06/25 00:22:24;;;;;;;1.88;1.77;;;;;;;;;;4913341;29;20251;-63
2022/06/25 00:24:51;;;;;;;1.15;1.13;;;;;;;;;;4926411;29;20749;-62
2022/06/25 00:27:20;;;;;;;1.30;1.30;;;;;;;;;;4927344;29;20232;-63
2022/06/25 00:29:47;;;;;;;4.70;1.42;;;;;;;;;;4927430;29;20247;-62
2022/06/25 00:32:14;;;;;;;1.30;1.30;;;;;;;;;;4923044;29;20238;-62
2022/06/25 00:34:41;;;;;;;2.35;1.98;;;;;;;;;;4928585;29;20689;-63
2022/06/25 00:37:08;;;;;;;2.60;1.70;;;;;;;;;;4912613;29;20219;-62
2022/06/25 00:39:35;;;;;;;3.00;1.70;;;;;;;;;;4916073;29;20216;-62
2022/06/25 00:42:02;;;;;;;2.40;1.92;;;;;;;;;;4911298;29;20220;-62
2022/06/25 00:44:31;;;;;;;4.68;1.73;;;;;;;;;;4910096;29;20220;-62
2022/06/25 00:46:58;;;;;;;2.08;1.98;;;;;;;;;;4916796;29;20303;-62
2022/06/25 00:49:25;;;;;;;1.80;1.70;;;;;;;;;;4927954;29;20255;-62
2022/06/25 00:51:53;;;;;;;2.15;1.60;;;;;;;;;;4912367;29;20289;-62
2022/06/25 00:54:21;;;;;;;5.75;2.00;;;;;;;;;;4922197;29;20303;-62
2022/06/25 00:56:49;;;;;;;5.95;1.92;;;;;;;;;;4924894;29;20267;-62
2022/06/25 00:59:17;;;;;;;1.83;1.73;;;;;;;;;;4926452;29;20211;-62
2022/06/25 01:01:45;;;;;;;2.10;1.90;;;;;;;;;;4915225;29;20223;-62
2022/06/25 01:04:13;;;;;;;1.98;1.58;;;;;;;;;;4918507;29;20361;-62
2022/06/25 01:06:40;;;;;;;1.90;1.75;;;;;;;;;;4923195;29;20236;-62
2022/06/25 01:09:07;;;;;;;2.55;1.92;;;;;;;;;;4923467;29;20231;-62
2022/06/25 01:11:34;;;;;;;5.65;1.70;;;;;;;;;;4927884;29;20223;-62
2022/06/25 01:14:06;;;;;;;3.63;1.50;;;;;;;;;;4931228;29;20207;-62
2022/06/25 01:16:33;;;;;;;1.98;1.85;;;;;;;;;;4925265;29;20204;-62
2022/06/25 01:19:06;;;;;;;1.55;1.42;;;;;;;;;;4930835;29;20205;-61
2022/06/25 01:21:33;;;;;;;1.88;1.77;;;;;;;;;;4923151;29;20304;-62
2022/06/25 01:24:02;;;;;;;6.47;1.60;;;;;;;;;;4924988;29;20213;-62
2022/06/25 01:26:29;;;;;;;1.98;1.80;;;;;;;;;;4920479;29;20263;-61
2022/06/25 01:28:56;;;;;;;1.92;1.83;;;;;;;;;;4915323;29;20710;-61
2022/06/25 01:31:23;;;;;;;1.63;1.63;;;;;;;;;;4922135;29;20270;-62
2022/06/25 01:33:50;;;;;;;1.90;1.90;;;;;;;;;;4924084;29;20216;-61
2022/06/25 01:36:18;;;;;;;3.80;1.83;;;;;;;;;;4921295;29;20207;-61
2022/06/25 01:38:46;;;;;;;2.78;1.73;;;;;;;;;;4921195;29;20207;-61
2022/06/25 01:41:14;;;;;;;1.65;1.55;;;;;;;;;;4919762;29;20227;-61
2022/06/25 01:43:41;;;;;;;2.25;1.85;;;;;;;;;;4914755;29;20212;-61
2022/06/25 01:46:09;;;;;;;3.50;1.77;;;;;;;;;;4921762;29;20241;-61
2022/06/25 01:48:36;;;;;;;1.98;1.70;;;;;;;;;;4924866;29;20798;-61
2022/06/25 01:51:03;;;;;;;2.75;2.20;;;;;;;;;;4914836;29;20667;-62
2022/06/25 01:53:30;;;;;;;2.58;2.33;;;;;;;;;;4925312;29;20634;-61
2022/06/25 01:55:57;;;;;;;3.30;2.50;;;;;;;;;;4920327;29;20219;-61
2022/06/25 01:58:26;;;;;;;2.90;2.20;;;;;;;;;;4928439;29;20618;-61
2022/06/25 02:00:53;;;;;;;2.40;2.25;;;;;;;;;;4917630;29;20604;-61
2022/06/25 02:03:20;;;;;;;3.90;2.30;;;;;;;;;;4921556;29;20259;-63
2022/06/25 02:05:59;;;;;;;2.33;2.00;;;;;;;;;;4912413;29;20216;-62
2022/06/25 02:08:27;;;;;;;2.53;2.40;;;;;;;;;;4915561;29;20224;-61
2022/06/25 02:10:55;;;;;;;2.92;2.00;;;;;;;;;;4920179;29;20208;-61
2022/06/25 02:13:22;;;;;;;3.53;2.10;;;;;;;;;;4928691;29;20200;-61
2022/06/25 02:15:50;;;;;;;3.33;2.53;;;;;;;;;;4933863;29;20855;-61
2022/06/25 02:18:17;;;;;;;2.58;2.47;;;;;;;;;;4919059;29;20207;-64
2022/06/25 02:20:45;;;;;;;3.85;2.45;;;;;;;;;;4919343;29;20241;-62
2022/06/25 02:23:13;;;;;;;2.15;2.13;;;;;;;;;;4924619;29;20212;-62
2022/06/25 02:25:40;;;;;;;3.28;2.55;;;;;;;;;;4921445;29;20635;-61
2022/06/25 02:28:07;;;;;;;2.70;2.60;;;;;;;;;;4922245;29;20855;-62
2022/06/25 02:30:34;;;;;;;2.45;2.33;;;;;;;;;;4917928;29;20245;-62
2022/06/25 02:33:03;;;;;;;5.88;3.28;;;;;;;;;;4922842;29;20259;-62
2022/06/25 02:35:30;;;;;;;2.78;2.67;;;;;;;;;;4931542;29;20272;-62
2022/06/25 02:37:57;;;;;;;2.92;2.83;;;;;;;;;;4929798;29;20212;-62
2022/06/25 02:40:24;;;;;;;3.15;2.95;;;;;;;;;;4932166;29;20200;-62
2022/06/25 02:42:51;;;;;;;5.50;3.17;;;;;;;;;;4932966;29;20203;-62
2022/06/25 02:45:18;;;;;;;4.07;3.20;;;;;;;;;;4931425;29;20610;-61
2022/06/25 02:47:45;;;;;;;3.63;3.28;;;;;;;;;;4931117;29;20219;-61
2022/06/25 02:50:13;;;;;;;2.63;2.53;;;;;;;;;;4918883;29;20213;-63
2022/06/25 02:52:40;;;;;;;3.17;3.08;;;;;;;;;;4916650;29;20638;-60
2022/06/25 02:55:08;;;;;;;4.05;3.60;;;;;;;;;;4922714;29;20208;-61
2022/06/25 03:00:20;;;;;;;3.55;3.25;;;;;;;;;;4918264;29;20886;-61
2022/06/25 03:02:47;;;;;;;3.20;3.03;;;;;;;;;;4918672;29;20227;-61
2022/06/25 03:05:15;;;;;;;3.13;2.90;;;;;;;;;;4914652;29;20211;-61
2022/06/25 03:07:42;;;;;;;4.78;3.17;;;;;;;;;;4922737;29;20231;-61
2022/06/25 03:10:09;;;;;;;5.03;3.20;;;;;;;;;;4925062;29;20208;-61
2022/06/25 03:12:36;;;;;;;3.75;3.50;;;;;;;;;;4930042;29;20579;-61
2022/06/25 03:15:04;;;;;;;3.67;3.47;;;;;;;;;;4919492;29;20251;-62
2022/06/25 03:17:31;;;;;;;5.82;3.65;;;;;;;;;;4914830;29;20559;-62
2022/06/25 03:19:58;;;;;;;4.40;3.20;;;;;;;;;;4921774;29;20204;-62
2022/06/25 03:22:26;;;;;;;3.50;3.30;;;;;;;;;;4925576;29;20698;-63
2022/06/25 03:24:53;;;;;;;3.38;3.10;;;;;;;;;;4919679;29;20966;-62
2022/06/25 03:27:20;;;;;;;4.55;3.00;;;;;;;;;;4914358;29;20224;-62
2022/06/25 03:29:47;;;;;;;5.57;3.17;;;;;;;;;;4927457;29;20239;-62
2022/06/25 03:32:14;;;;;;;5.07;3.30;;;;;;;;;;4928555;29;20268;-62
2022/06/25 03:34:41;;;;;;;3.60;3.40;;;;;;;;;;4927981;29;20321;-62
2022/06/25 03:37:08;;;;;;;2.88;2.78;;;;;;;;;;4920401;29;20212;-62
2022/06/25 03:39:37;;;;;;;3.20;2.92;;;;;;;;;;4930205;29;20208;-61
2022/06/25 03:42:04;;;;;;;6.03;3.58;;;;;;;;;;4928301;29;20633;-62
2022/06/25 03:44:31;;;;;;;4.07;3.75;;;;;;;;;;4930778;29;20674;-62
2022/06/25 03:46:58;;;;;;;2.92;2.83;;;;;;;;;;4922843;29;20370;-62
2022/06/25 03:49:25;;;;;;;3.60;3.50;;;;;;;;;;4930165;29;20212;-62
2022/06/25 03:51:52;;;;;;;3.25;3.13;;;;;;;;;;4922956;29;20282;-62
2022/06/25 03:54:20;;;;;;;3.42;3.22;;;;;;;;;;4920477;29;20275;-62
2022/06/25 03:56:48;;;;;;;3.28;3.13;;;;;;;;;;4923937;29;20738;-62
2022/06/25 03:59:15;;;;;;;3.45;3.25;;;;;;;;;;4913607;29;20283;-62
2022/06/25 04:01:42;;;;;;;5.82;3.45;;;;;;;;;;4926442;29;20289;-62
2022/06/25 04:04:09;;;;;;;3.83;3.58;;;;;;;;;;4916556;29;20221;-62
2022/06/25 04:06:36;;;;;;;3.53;3.22;;;;;;;;;;4924895;29;20207;-62
2022/06/25 04:09:04;;;;;;;3.83;3.60;;;;;;;;;;4917630;29;20299;-62
2022/06/25 04:11:31;;;;;;;3.05;2.50;;;;;;;;;;4919552;29;20275;-62
2022/06/25 04:14:00;;;;;;;3.90;3.63;;;;;;;;;;4930204;29;20271;-62
2022/06/25 04:16:27;;;;;;;5.90;3.78;;;;;;;;;;4925007;29;20734;-62
2022/06/25 04:18:54;;;;;;;3.42;3.00;;;;;;;;;;4913337;29;20204;-62
2022/06/25 04:21:21;;;;;;;3.85;2.75;;;;;;;;;;4926430;29;20231;-62
2022/06/25 04:23:48;;;;;;;4.22;3.13;;;;;;;;;;4918551;29;20264;-62
2022/06/25 04:26:15;;;;;;;3.15;2.95;;;;;;;;;;4926757;29;20215;-62
2022/06/25 04:31:28;;;;;;;4.20;2.88;;;;;;;;;;4925125;29;20222;-62
2022/06/25 04:33:55;;;;;;;3.80;3.10;;;;;;;;;;4928262;29;20211;-62
2022/06/25 04:36:22;;;;;;;3.10;2.83;;;;;;;;;;4919645;29;20212;-63
2022/06/25 04:38:50;;;;;;;3.33;3.13;;;;;;;;;;4917679;29;20682;-63
2022/06/25 04:41:17;;;;;;;8.70;3.35;;;;;;;;;;4920157;29;20319;-62
2022/06/25 04:43:44;;;;;;;4.47;3.45;;;;;;;;;;4923967;29;20259;-62
2022/06/25 04:46:11;;;;;;;3.55;3.35;;;;;;;;;;4914074;29;20568;-62
2022/06/25 04:48:40;;;;;;;4.68;3.30;;;;;;;;;;4916782;29;20287;-62
2022/06/25 04:51:07;;;;;;;4.70;2.92;;;;;;;;;;4926934;29;20219;-63
2022/06/25 04:53:54;;;;;;;4.63;2.85;;;;;;;;;;4923215;29;20248;-63
2022/06/25 04:56:21;;;;;;;7.05;3.40;;;;;;;;;;4921287;29;20624;-63
2022/06/25 04:58:48;;;;;;;5.15;2.97;;;;;;;;;;4924634;29;20204;-63
2022/06/25 05:01:15;;;;;;;3.97;3.67;;;;;;;;;;4913751;29;20626;-64
2022/06/25 05:03:43;;;;;;;3.20;3.03;;;;;;;;;;4916406;29;20218;-64
2022/06/25 05:06:10;;;;;;;3.30;3.20;;;;;;;;;;4925802;29;20208;-63
2022/06/25 05:08:38;;;;;;;5.47;3.03;;;;;;;;;;4919869;29;20231;-65
2022/06/25 05:11:05;;;;;;;6.50;2.47;;;;;;;;;;4926177;29;20204;-64
2022/06/25 05:13:32;;;;;;;2.63;2.35;;;;;;;;;;4922374;29;20219;-63
2022/06/25 05:15:59;;;;;;;3.47;2.53;;;;;;;;;;4916279;29;20763;-63
2022/06/25 05:18:26;;;;;;;2.55;2.45;;;;;;;;;;4917937;29;20201;-64
2022/06/25 05:20:54;;;;;;;3.35;2.25;;;;;;;;;;4920247;29;20267;-63
2022/06/25 05:23:21;;;;;;;4.43;2.70;;;;;;;;;;4917489;29;20891;-63
2022/06/25 05:25:48;;;;;;;2.88;2.42;;;;;;;;;;4923908;29;20230;-64
2022/06/25 05:28:17;;;;;;;2.13;2.03;;;;;;;;;;4919909;29;20264;-64
2022/06/25 05:30:44;;;;;;;3.00;1.98;;;;;;;;;;4922100;29;20240;-64
2022/06/25 05:33:11;;;;;;;4.35;2.10;;;;;;;;;;4912695;29;20212;-64
2022/06/25 05:35:38;;;;;;;2.38;2.22;;;;;;;;;;4913082;29;20689;-64
2022/06/25 05:38:06;;;;;;;3.60;1.70;;;;;;;;;;4915305;29;20204;-65
2022/06/25 05:40:34;;;;;;;1.85;1.80;;;;;;;;;;4920506;29;20211;-64
2022/06/25 05:43:01;;;;;;;1.98;1.60;;;;;;;;;;4925225;29;20216;-64
2022/06/25 05:45:29;;;;;;;2.13;2.03;;;;;;;;;;4925907;29;20325;-64
2022/06/25 05:47:56;;;;;;;2.35;2.25;;;;;;;;;;4912556;29;20222;-64
2022/06/25 05:50:23;;;;;;;1.88;1.75;;;;;;;;;;4917684;29;20221;-65
2022/06/25 05:52:50;;;;;;;2.47;1.67;;;;;;;;;;4917191;29;20200;-64
2022/06/25 05:55:18;;;;;;;2.35;1.80;;;;;;;;;;4920787;29;20263;-64
2022/06/25 05:57:46;;;;;;;2.00;2.00;;;;;;;;;;4922985;29;20595;-65
2022/06/25 06:00:13;;;;;;;2.00;1.90;;;;;;;;;;4916437;29;20223;-64
2022/06/25 06:02:40;;;;;;;1.83;1.60;;;;;;;;;;4916048;29;20213;-64
2022/06/25 06:05:07;;;;;;;2.28;1.85;;;;;;;;;;4917755;29;20689;-64
2022/06/25 06:07:35;;;;;;;2.05;1.60;;;;;;;;;;4916523;29;20275;-63
2022/06/25 06:10:02;;;;;;;2.25;2.13;;;;;;;;;;4917222;29;20228;-64
2022/06/25 06:12:30;;;;;;;2.25;2.15;;;;;;;;;;4918843;29;20220;-64
2022/06/25 06:14:57;;;;;;;2.05;2.03;;;;;;;;;;4916115;29;20208;-63
2022/06/25 06:17:24;;;;;;;2.72;2.40;;;;;;;;;;4930220;29;20290;-64
2022/06/25 06:19:51;;;;;;;2.70;2.60;;;;;;;;;;4930928;29;20255;-64
2022/06/25 06:22:18;;;;;;;1.92;1.90;;;;;;;;;;4929177;29;20212;-64
2022/06/25 06:24:45;;;;;;;3.22;2.38;;;;;;;;;;4932105;29;20212;-64
2022/06/25 06:27:12;;;;;;;2.30;2.20;;;;;;;;;;4930133;29;20204;-64
2022/06/25 06:29:41;;;;;;;2.08;1.98;;;;;;;;;;4926213;29;20240;-64
2022/06/25 06:32:08;;;;;;;2.17;2.10;;;;;;;;;;4922235;29;20219;-64
2022/06/25 06:34:35;;;;;;;2.20;2.20;;;;;;;;;;4925461;29;20258;-64
2022/06/25 06:37:02;;;;;;;2.10;2.10;;;;;;;;;;4931407;29;20215;-63
2022/06/25 06:39:29;;;;;;;2.50;2.35;;;;;;;;;;4925498;29;20211;-63
2022/06/25 06:41:56;;;;;;;2.22;2.20;;;;;;;;;;4918042;29;20267;-62
2022/06/25 06:44:23;;;;;;;2.40;2.30;;;;;;;;;;4929987;29;20204;-65
2022/06/25 06:46:52;;;;;;;2.42;2.42;;;;;;;;;;4931601;29;20212;-63
2022/06/25 06:49:19;;;;;;;2.70;2.60;;;;;;;;;;4914542;29;20232;-63
2022/06/25 06:51:46;;;;;;;2.70;2.50;;;;;;;;;;4922181;29;20208;-62
2022/06/25 06:54:13;;;;;;;4.35;2.90;;;;;;;;;;4929952;29;20851;-63
2022/06/25 06:56:40;;;;;;;2.40;2.40;;;;;;;;;;4926359;29;20208;-63
2022/06/25 06:59:07;;;;;;;2.63;2.53;;;;;;;;;;4924976;29;20302;-63
2022/06/25 07:01:34;;;;;;;4.18;3.03;;;;;;;;;;4919251;29;20303;-63
2022/06/25 07:04:03;;;;;;;3.05;2.95;;;;;;;;;;4930115;29;20291;-63
2022/06/25 07:06:30;;;;;;;3.25;3.05;;;;;;;;;;4930715;29;20210;-63
2022/06/25 07:08:57;;;;;;;3.65;3.35;;;;;;;;;;4921825;29;20322;-63
2022/06/25 07:11:31;;;;;;;2.70;2.70;;;;;;;;;;4920774;29;20629;-63
2022/06/25 07:13:59;;;;;;;2.90;2.90;;;;;;;;;;4919745;29;20583;-65
2022/06/25 07:16:26;;;;;;;3.53;3.30;;;;;;;;;;4914448;29;20209;-64
2022/06/25 07:18:53;;;;;;;3.28;3.08;;;;;;;;;;4914362;29;20212;-63
2022/06/25 07:21:21;;;;;;;3.88;3.55;;;;;;;;;;4921185;29;20203;-63
2022/06/25 07:23:48;;;;;;;3.30;3.20;;;;;;;;;;4918182;29;20208;-63
2022/06/25 07:26:15;;;;;;;3.00;2.90;;;;;;;;;;4920779;29;20212;-63
2022/06/25 07:28:42;;;;;;;3.03;2.83;;;;;;;;;;4918298;29;20231;-67
2022/06/25 07:31:09;;;;;;;3.17;2.95;;;;;;;;;;4922230;29;20718;-64
2022/06/25 07:33:36;;;;;;;2.75;2.75;;;;;;;;;;4927577;29;20211;-64
2022/06/25 07:36:04;;;;;;;3.00;2.90;;;;;;;;;;4924606;29;20633;-64
2022/06/25 07:38:33;;;;;;;3.38;3.17;;;;;;;;;;4925289;29;20616;-64
2022/06/25 07:41:00;;;;;;;3.05;2.80;;;;;;;;;;4924027;29;20204;-66
2022/06/25 07:43:27;;;;;;;3.33;3.03;;;;;;;;;;4922762;29;20221;-63
2022/06/25 07:45:55;;;;;;;3.45;3.25;;;;;;;;;;4916939;29;20213;-63
2022/06/25 07:48:22;;;;;;;3.80;3.38;;;;;;;;;;4926787;29;20211;-62
2022/06/25 07:53:35;;;;;;;3.25;3.00;;;;;;;;;;4925324;29;20215;-63
2022/06/25 07:56:02;;;;;;;3.35;3.15;;;;;;;;;;4926374;29;20278;-63
2022/06/25 07:58:31;;;;;;;3.38;3.17;;;;;;;;;;4918793;29;20632;-63
2022/06/25 08:00:58;;;;;;;4.80;3.45;;;;;;;;;;4925084;29;20219;-64
2022/06/25 08:03:25;;;;;;;2.55;2.33;;;;;;;;;;4916514;29;20241;-63
2022/06/25 08:05:53;;;;;;;2.85;2.75;;;;;;;;;;4926168;29;20702;-63
2022/06/25 08:08:20;;;;;;;5.30;2.88;;;;;;;;;;4922908;29;20211;-63
2022/06/25 08:10:48;;;;;;;3.10;2.90;;;;;;;;;;4923522;29;20227;-63
2022/06/25 08:13:15;;;;;;;2.78;2.67;;;;;;;;;;4920389;29;20255;-63
2022/06/25 08:15:42;;;;;;;2.90;2.80;;;;;;;;;;4918253;29;20212;-63
2022/06/25 08:18:09;;;;;;;2.80;2.67;;;;;;;;;;4920749;29;20291;-62
2022/06/25 08:20:36;;;;;;;2.70;2.60;;;;;;;;;;4925492;29;20258;-63
2022/06/25 08:23:03;;;;;;;2.50;2.50;;;;;;;;;;4928877;29;20206;-62
2022/06/25 08:25:30;;;;;;;2.67;2.58;;;;;;;;;;4921995;29;20272;-63
2022/06/25 08:27:59;;;;;;;2.53;2.42;;;;;;;;;;4923304;29;20703;-62
2022/06/25 08:30:26;;;;;;;3.85;2.47;;;;;;;;;;4928408;29;20290;-63
2022/06/25 08:32:54;;;;;;;2.28;2.28;;;;;;;;;;4915719;29;20208;-64
2022/06/25 08:35:22;;;;;;;3.72;2.05;;;;;;;;;;4915145;29;20204;-64
2022/06/25 08:37:49;;;;;;;2.50;2.40;;;;;;;;;;4916953;29;20216;-63
2022/06/25 08:40:18;;;;;;;6.68;2.95;;;;;;;;;;4916778;29;20213;-63
2022/06/25 08:42:47;;;;;;;2.22;2.15;;;;;;;;;;4927130;29;20282;-64
2022/06/25 08:45:16;;;;;;;1.80;1.80;;;;;;;;;;4925480;29;20690;-63
2022/06/25 08:47:44;;;;;;;2.30;2.30;;;;;;;;;;4927835;29;20377;-63
2022/06/25 08:50:11;;;;;;;2.47;2.38;;;;;;;;;;4918202;29;20664;-63
2022/06/25 08:52:39;;;;;;;2.28;2.00;;;;;;;;;;4918287;29;20204;-63
2022/06/25 08:55:06;;;;;;;2.22;2.13;;;;;;;;;;4917046;29;20255;-63
2022/06/25 08:57:33;;;;;;;2.83;2.63;;;;;;;;;;4920098;29;20263;-63
2022/06/25 09:00:00;;;;;;;2.20;2.20;;;;;;;;;;4917657;29;20208;-63
2022/06/25 09:02:29;;;;;;;1.60;1.60;;;;;;;;;;4921621;29;20212;-63
2022/06/25 09:04:56;;;;;;;2.00;1.90;;;;;;;;;;4929091;29;20274;-63
2022/06/25 09:07:23;;;;;;;2.03;2.03;;;;;;;;;;4920220;29;20267;-69
2022/06/25 09:09:50;;;;;;;2.40;2.30;;;;;;;;;;4928997;29;20227;-63
2022/06/25 09:12:18;;;;;;;1.85;1.77;;;;;;;;;;4921921;29;20271;-64
2022/06/25 09:14:46;;;;;;;2.72;1.88;;;;;;;;;;4918567;29;20208;-64
2022/06/25 09:17:14;;;;;;;1.40;1.40;;;;;;;;;;4920577;29;20694;-64
2022/06/25 09:19:43;;;;;;;2.70;2.33;;;;;;;;;;4914224;29;20978;-65
2022/06/25 09:22:11;;;;;;;2.50;1.48;;;;;;;;;;4919737;29;20219;-68
2022/06/25 09:24:43;;;;;;;1.75;1.70;;;;;;;;;;4922698;29;20216;-63
2022/06/25 09:27:10;;;;;;;1.60;1.50;;;;;;;;;;4930705;29;20231;-62
2022/06/25 09:29:37;;;;;;;1.58;1.55;;;;;;;;;;4924890;29;20231;-61
2022/06/25 09:32:04;;;;;;;1.55;1.45;;;;;;;;;;4924908;29;20219;-62
2022/06/25 09:34:33;;;;;;;1.65;1.55;;;;;;;;;;4922364;29;20235;-62
2022/06/25 09:37:15;;;;;;;1.58;1.45;;;;;;;;;;4930690;29;20677;-62
2022/06/25 09:39:42;;;;;;;2.38;1.55;;;;;;;;;;4932041;29;20212;-62
2022/06/25 09:42:20;;;;;;;1.45;1.35;;;;;;;;;;4931429;29;20218;-62
2022/06/25 09:44:47;;;;;;;1.08;1.08;;;;;;;;;;4925855;29;20212;-62
2022/06/25 09:47:14;;;;;;;1.20;1.20;;;;;;;;;;4930250;29;20266;-60
2022/06/25 09:49:41;;;;;;;1.42;1.30;;;;;;;;;;4930848;29;20224;-60
2022/06/25 09:52:11;;;;;;;1.25;1.25;;;;;;;;;;4932052;29;20216;-60
2022/06/25 09:54:38;;;;;;;1.10;1.10;;;;;;;;;;4932118;29;20220;-60
2022/06/25 09:57:06;;;;;;;1.42;1.30;;;;;;;;;;4931860;29;20957;-61
2022/06/25 09:59:34;;;;;;;1.42;1.15;;;;;;;;;;4932084;29;20319;-61
2022/06/25 10:02:03;;;;;;;1.15;1.15;;;;;;;;;;4931242;29;20690;-61
2022/06/25 10:04:30;;;;;;;1.75;1.40;;;;;;;;;;4931366;29;20226;-61
2022/06/25 10:06:58;;;;;;;1.45;1.45;;;;;;;;;;4930878;29;20827;-61
2022/06/25 10:09:27;;;;;;;1.27;1.25;;;;;;;;;;4930948;29;20220;-62
2022/06/25 10:11:54;;;;;;;1.40;1.40;;;;;;;;;;4931293;29;20589;-61
2022/06/25 10:14:21;;;;;;;1.67;1.60;;;;;;;;;;4931752;29;20220;-61
2022/06/25 10:16:48;;;;;;;1.38;1.38;;;;;;;;;;4930725;29;20218;-61
2022/06/25 10:19:16;;;;;;;1.45;1.35;;;;;;;;;;4931200;29;20274;-61
2022/06/25 10:21:43;;;;;;;1.42;1.42;;;;;;;;;;4931144;29;20683;-61
2022/06/25 10:24:10;;;;;;;1.65;1.10;;;;;;;;;;4931379;29;20256;-61
2022/06/25 10:26:40;;;;;;;1.52;1.42;;;;;;;;;;4930956;29;20219;-61
2022/06/25 10:29:22;;;;;;;1.60;1.50;;;;;;;;;;4930564;29;20239;-62
2022/06/25 10:31:49;;;;;;;1.42;1.40;;;;;;;;;;4937800;29;20302;-61
2022/06/25 10:34:16;;;;;;;2.75;1.90;;;;;;;;;;4930340;29;20227;-61
2022/06/25 10:36:44;;;;;;;1.65;1.40;;;;;;;;;;4929132;29;20380;-61
2022/06/25 10:39:30;;;;;;;2.30;1.50;;;;;;;;;;4930423;29;20233;-61
2022/06/25 10:45:06;;;;;;;1.35;1.35;;;;;;;;;;4911581;29;20371;-62
2022/06/25 10:47:40;;;;;;;1.73;1.40;;;;;;;;;;4924120;29;20270;-62
2022/06/25 10:50:26;;;;;;;1.17;1.17;;;;;;;;;;4930156;29;20231;-62
2022/06/25 10:53:08;;;;;;;1.23;1.23;;;;;;;;;;4930304;29;20670;-62
2022/06/25 10:55:36;;;;;;;1.33;1.27;;;;;;;;;;4929855;29;20627;-62
2022/06/25 10:58:11;;;;;;;1.42;1.30;;;;;;;;;;4929979;29;20208;-61
2022/06/25 11:00:50;;;;;;;2.58;1.40;;;;;;;;;;4930442;29;20219;-62
2022/06/25 11:03:18;;;;;;;2.60;1.50;;;;;;;;;;4930625;29;20257;-62
2022/06/25 11:05:46;;;;;;;3.40;1.80;;;;;;;;;;4930167;29;20228;-62
2022/06/25 11:08:13;;;;;;;3.22;1.10;;;;;;;;;;4930104;29;20211;-61
2022/06/25 11:10:41;;;;;;;1.60;1.60;;;;;;;;;;4930377;29;20239;-61
2022/06/25 11:13:09;;;;;;;1.30;1.30;;;;;;;;;;4930385;29;20243;-63
2022/06/25 11:15:39;;;;;;;1.20;1.20;;;;;;;;;;4930424;29;20690;-62
2022/06/25 11:18:09;;;;;;;1.10;1.10;;;;;;;;;;4930192;29;20208;-62
2022/06/25 11:20:37;;;;;;;1.13;1.13;;;;;;;;;;4930002;29;20262;-62
2022/06/25 11:23:04;;;;;;;1.30;1.30;;;;;;;;;;4929819;29;20274;-62
2022/06/25 11:28:49;;;;;;;1.50;1.50;;;;;;;;;;4929188;29;20821;-62
2022/06/25 11:31:16;;;;;;;1.20;1.20;;;;;;;;;;4929071;29;20260;-62
2022/06/25 11:33:45;;;;;;;1.25;1.25;;;;;;;;;;4929243;29;20251;-61
2022/06/25 11:36:12;;;;;;;0.98;0.95;;;;;;;;;;4929294;29;20215;-62
2022/06/25 11:38:40;;;;;;;0.88;0.88;;;;;;;;;;4929174;29;20211;-62
2022/06/25 11:41:08;;;;;;;1.10;1.10;;;;;;;;;;4928940;29;20204;-61
2022/06/25 11:43:35;;;;;;;0.90;0.90;;;;;;;;;;4929564;29;20212;-61
2022/06/25 11:46:02;;;;;;;1.38;1.27;;;;;;;;;;4929305;29;20212;-62
2022/06/25 11:48:31;;;;;;;1.25;1.25;;;;;;;;;;4929164;29;20725;-62
2022/06/25 11:51:00;;;;;;;1.42;1.30;;;;;;;;;;4929196;29;20279;-61
2022/06/25 11:53:27;;;;;;;1.15;1.00;;;;;;;;;;4929070;29;20270;-62
2022/06/25 11:55:58;;;;;;;1.00;1.00;;;;;;;;;;4928804;29;20278;-62
2022/06/25 11:58:26;;;;;;;0.77;0.77;;;;;;;;;;4928786;29;20219;-62
2022/06/25 12:00:55;;;;;;;2.38;1.30;;;;;;;;;;4929106;29;20670;-62
2022/06/25 12:03:24;;;;;;;0.98;0.85;;;;;;;;;;4928899;29;20215;-62
2022/06/25 12:05:51;;;;;;;1.17;1.08;;;;;;;;;;4928923;29;20220;-62
2022/06/25 12:08:20;;;;;;;1.30;1.20;;;;;;;;;;4929345;29;20461;-61
2022/06/25 12:10:48;;;;;;;1.10;1.10;;;;;;;;;;4928446;29;20239;-62
2022/06/25 12:13:15;;;;;;;1.52;1.52;;;;;;;;;;4928789;29;20282;-62
2022/06/25 12:15:42;;;;;;;1.33;1.30;;;;;;;;;;4928708;29;20859;-61
2022/06/25 12:18:09;;;;;;;1.30;1.30;;;;;;;;;;4928263;29;20216;-62
2022/06/25 12:20:36;;;;;;;0.90;0.90;;;;;;;;;;4928276;29;20290;-62
2022/06/25 12:23:04;;;;;;;1.00;1.00;;;;;;;;;;4928458;29;20219;-62
2022/06/25 12:25:33;;;;;;;0.90;0.90;;;;;;;;;;4928490;29;20219;-61
2022/06/25 12:28:00;;;;;;;2.38;0.88;;;;;;;;;;4927877;29;20231;-62
2022/06/25 12:30:28;;;;;;;0.90;0.90;;;;;;;;;;4928071;29;20239;-62
2022/06/25 12:32:57;;;;;;;1.02;0.88;;;;;;;;;;4927893;29;20230;-63
2022/06/25 12:35:25;;;;;;;0.80;0.80;;;;;;;;;;4927628;29;20356;-62
2022/06/25 12:38:03;;;;;;;0.90;0.90;;;;;;;;;;4917606;29;20652;-62
2022/06/25 12:40:30;;;;;;;1.10;1.10;;;;;;;;;;4928569;29;20223;-62
2022/06/25 12:43:00;;;;;;;1.40;0.82;;;;;;;;;;4911972;29;20239;-61
2022/06/25 12:45:27;;;;;;;0.95;0.88;;;;;;;;;;4909408;29;20212;-62
2022/06/25 12:47:54;;;;;;;0.60;0.60;;;;;;;;;;4909739;29;20307;-62
2022/06/25 12:50:25;;;;;;;1.10;1.00;;;;;;;;;;4928019;29;20242;-62
2022/06/25 12:52:52;;;;;;;1.33;1.15;;;;;;;;;;4928106;29;20259;-62
2022/06/25 12:55:20;;;;;;;0.82;0.82;;;;;;;;;;4928543;29;20219;-62
2022/06/25 12:57:47;;;;;;;1.17;1.10;;;;;;;;;;4927556;29;20686;-62
2022/06/25 13:00:19;;;;;;;0.90;0.90;;;;;;;;;;4927764;29;20219;-62
2022/06/25 13:02:46;;;;;;;2.10;1.20;;;;;;;;;;4928378;29;20274;-62
2022/06/25 13:05:14;;;;;;;0.93;0.93;;;;;;;;;;4927767;29;20796;-62
2022/06/25 13:07:41;;;;;;;4.00;0.98;;;;;;;;;;4928179;29;20914;-62
2022/06/25 13:10:08;;;;;;;1.13;1.00;;;;;;;;;;4927950;29;20216;-62
2022/06/25 13:12:36;;;;;;;1.02;1.00;;;;;;;;;;4928522;29;20219;-61
2022/06/25 13:15:04;;;;;;;0.90;0.90;;;;;;;;;;4928079;29;20207;-62
2022/06/25 13:17:32;;;;;;;0.95;0.90;;;;;;;;;;4927983;29;20207;-62
2022/06/25 13:19:59;;;;;;;1.95;1.02;;;;;;;;;;4927863;29;20249;-62
2022/06/25 13:22:27;;;;;;;0.95;0.95;;;;;;;;;;4928412;29;20223;-62
2022/06/25 13:24:55;;;;;;;1.33;1.33;;;;;;;;;;4928136;29;20289;-62
2022/06/25 13:27:22;;;;;;;1.48;1.13;;;;;;;;;;4928017;29;20223;-62
2022/06/25 13:29:49;;;;;;;1.80;1.10;;;;;;;;;;4927849;29;20236;-61
2022/06/25 13:32:17;;;;;;;1.17;1.17;;;;;;;;;;4927789;29;20232;-61
2022/06/25 13:34:45;;;;;;;1.20;1.20;;;;;;;;;;4927968;29;20226;-62
2022/06/25 13:37:13;;;;;;;1.27;1.27;;;;;;;;;;4927937;29;20310;-62
2022/06/25 13:39:40;;;;;;;1.30;1.30;;;;;;;;;;4927715;29;20211;-62
2022/06/25 13:42:07;;;;;;;1.40;1.40;;;;;;;;;;4927673;29;20212;-62
2022/06/25 13:44:35;;;;;;;1.08;1.08;;;;;;;;;;4927885;29;20650;-62
2022/06/25 13:47:02;;;;;;;1.30;1.30;;;;;;;;;;4927684;29;20235;-62
2022/06/25 13:49:29;;;;;;;0.98;0.95;;;;;;;;;;4927278;29;20212;-62
2022/06/25 13:51:59;;;;;;;1.23;1.23;;;;;;;;;;4927398;29;20271;-62
2022/06/25 13:54:27;;;;;;;1.50;1.40;;;;;;;;;;4927818;29;20227;-62
2022/06/25 13:56:54;;;;;;;1.42;1.00;;;;;;;;;;4927440;29;20223;-62
2022/06/25 13:59:21;;;;;;;1.63;1.40;;;;;;;;;;4927751;29;20971;-61
2022/06/25 14:01:48;;;;;;;0.88;0.88;;;;;;;;;;4927390;29;20270;-62
2022/06/25 14:04:15;;;;;;;0.90;0.88;;;;;;;;;;4927486;29;20208;-61
2022/06/25 14:06:42;;;;;;;0.82;0.77;;;;;;;;;;4927327;29;20219;-62
2022/06/25 14:09:11;;;;;;;0.80;0.80;;;;;;;;;;4927766;29;20973;-62
2022/06/25 14:11:38;;;;;;;0.77;0.77;;;;;;;;;;4928693;29;20282;-62
2022/06/25 14:14:05;;;;;;;0.80;0.80;;;;;;;;;;4930472;29;20223;-62
2022/06/25 14:16:32;;;;;;;1.10;1.10;;;;;;;;;;4931413;29;20218;-62
2022/06/25 14:19:02;;;;;;;1.52;0.80;;;;;;;;;;4932471;29;20216;-61
2022/06/25 14:24:05;;;;;;;0.95;0.95;;;;;;;;;;5729900;23;20316;-62
2022/06/25 14:26:33;;;;;;;0.90;0.90;;;;;;;;;;4985342;28;20623;-61
2022/06/25 14:29:00;;;;;;;2.70;1.10;;;;;;;;;;4988796;28;20213;-61
2022/06/25 14:31:28;;;;;;;1.52;0.80;;;;;;;;;;4989044;28;20248;-62
2022/06/25 14:33:55;;;;;;;2.08;1.00;;;;;;;;;;4988486;28;20315;-62
2022/06/25 14:44:38;;;;;;;0.70;0.70;;;;;;;;;;4988271;28;20695;-62
2022/06/25 14:47:05;;;;;;;0.93;0.93;;;;;;;;;;4988542;28;20635;-62
2022/06/25 14:49:32;;;;;;;0.88;0.88;;;;;;;;;;4988043;28;20213;-62
2022/06/25 14:51:59;;;;;;;0.70;0.70;;;;;;;;;;4988346;28;20240;-62
2022/06/25 14:54:26;;;;;;;0.80;0.80;;;;;;;;;;4988222;28;20206;-62
2022/06/25 14:56:54;;;;;;;1.00;1.00;;;;;;;;;;4988313;28;20591;-62
2022/06/25 14:59:21;;;;;;;0.65;0.65;;;;;;;;;;4988179;28;20206;-62
2022/06/25 15:01:48;;;;;;;0.90;0.90;;;;;;;;;;4988401;28;20205;-62
2022/06/25 15:04:15;;;;;;;0.77;0.77;;;;;;;;;;4988433;28;20221;-62
2022/06/25 15:06:43;;;;;;;0.90;0.90;;;;;;;;;;4988067;28;20679;-62
2022/06/25 15:09:10;;;;;;;0.82;0.82;;;;;;;;;;4988695;28;20315;-62
2022/06/25 15:11:37;;;;;;;0.63;0.63;;;;;;;;;;4988035;28;20599;-62
2022/06/25 15:14:06;;;;;;;2.63;0.70;;;;;;;;;;4988483;28;20715;-62
2022/06/25 15:16:35;;;;;;;0.70;0.70;;;;;;;;;;4988257;28;20356;-62